Time,TemperatureF,DewpointF,PressureIn,WindDirection,WindDirectionDegrees,WindSpeedMPH,WindSpeedGustMPH,Humidity,HourlyPrecipIn,Conditions,Clouds,dailyrainin,SoftwareType,DateUTC
2013-02-25 00:01:00,61.8,56.0,29.69,East,99,1.0,-999.0,80,-99.99,,,0.00,weatherlink.com 1.10,2013-02-25 06:01:00,
2013-02-25 00:16:00,61.6,56.0,29.69,ESE,121,0.0,-999.0,81,-99.99,,,0.00,weatherlink.com 1.10,2013-02-25 06:16:00,
2013-02-25 00:31:00,61.6,56.0,29.68,East,97,6.0,-999.0,82,-99.99,,,0.00,weatherlink.com 1.10,2013-02-25 06:31:00,
2013-02-25 00:46:00,61.5,56.0,29.67,SE,127,2.0,-999.0,83,-99.99,,,0.00,weatherlink.com 1.10,2013-02-25 06:46:00,
2013-02-25 01:01:00,61.3,56.0,29.67,ESE,104,0.0,-999.0,83,-99.99,,,0.00,weatherlink.com 1.10,2013-02-25 07:01:00,
2013-02-25 01:16:00,61.3,57.0,29.67,SE,124,0.0,-999.0,84,-99.99,,,0.00,weatherlink.com 1.10,2013-02-25 07:16:00,
2013-02-25 01:31:00,61.3,57.0,29.67,ESE,107,1.0,-999.0,84,-99.99,,,0.00,weatherlink.com 1.10,2013-02-25 07:31:00,
2013-02-25 01:46:00,61.2,57.0,29.67,ESE,103,1.0,-999.0,85,-99.99,,,0.00,weatherlink.com 1.10,2013-02-25 07:46:00,
2013-02-25 02:01:00,61.0,57.0,29.65,East,96,5.0,-999.0,85,-99.99,,,0.00,weatherlink.com 1.10,2013-02-25 08:01:00,
2013-02-25 02:16:00,61.0,57.0,29.64,SE,131,0.0,-999.0,86,-99.99,,,0.00,weatherlink.com 1.10,2013-02-25 08:16:00,
2013-02-25 02:31:00,60.9,57.0,29.64,ESE,120,3.0,-999.0,86,-99.99,,,0.00,weatherlink.com 1.10,2013-02-25 08:31:00,
2013-02-25 02:46:00,60.9,57.0,29.64,ESE,123,1.0,-999.0,87,-99.99,,,0.00,weatherlink.com 1.10,2013-02-25 08:46:00,
2013-02-25 03:01:00,60.9,57.0,29.63,East,89,3.0,-999.0,87,-99.99,,,0.00,weatherlink.com 1.10,2013-02-25 09:01:00,
2013-02-25 03:16:00,60.9,57.0,29.63,East,83,0.0,-999.0,88,-99.99,,,0.00,weatherlink.com 1.10,2013-02-25 09:16:00,
2013-02-25 03:31:00,60.7,57.0,29.63,East,97,1.0,-999.0,88,-99.99,,,0.00,weatherlink.com 1.10,2013-02-25 09:31:00,
2013-02-25 03:45:00,60.7,58.0,29.62,ESE,114,0.0,-999.0,89,-99.99,,,0.00,weatherlink.com 1.10,2013-02-25 09:45:00,
2013-02-25 04:01:00,60.5,57.0,29.61,East,83,1.0,-999.0,89,-99.99,,,0.00,weatherlink.com 1.10,2013-02-25 10:01:00,
2013-02-25 04:15:00,60.5,57.0,29.60,ESE,110,0.0,-999.0,89,-99.99,,,0.00,weatherlink.com 1.10,2013-02-25 10:15:00,
2013-02-25 04:31:00,60.5,58.0,29.61,ESE,104,0.0,-999.0,90,-99.99,,,0.00,weatherlink.com 1.10,2013-02-25 10:31:00,
2013-02-25 04:46:00,60.5,58.0,29.61,East,97,0.0,-999.0,91,-99.99,,,0.00,weatherlink.com 1.10,2013-02-25 10:46:00,
2013-02-25 05:01:00,60.4,58.0,29.60,East,90,0.0,-999.0,91,-99.99,,,0.00,weatherlink.com 1.10,2013-02-25 11:01:00,
2013-02-25 05:15:00,60.4,58.0,29.61,East,83,0.0,-999.0,91,-99.99,,,0.00,weatherlink.com 1.10,2013-02-25 11:15:00,
2013-02-25 05:30:00,60.5,58.0,29.61,East,79,2.0,-999.0,92,-99.99,,,0.00,weatherlink.com 1.10,2013-02-25 11:30:00,
2013-02-25 05:45:00,60.5,58.0,29.61,East,92,0.0,-999.0,92,-99.99,,,0.00,weatherlink.com 1.10,2013-02-25 11:45:00,
2013-02-25 06:01:00,60.5,58.0,29.60,ESE,112,2.0,-999.0,92,-99.99,,,0.00,weatherlink.com 1.10,2013-02-25 12:01:00,
2013-02-25 06:16:00,60.5,59.0,29.60,ESE,116,1.0,-999.0,93,-99.99,,,0.00,weatherlink.com 1.10,2013-02-25 12:16:00,
2013-02-25 06:31:00,60.5,59.0,29.60,East,95,1.0,-999.0,93,-99.99,,,0.00,weatherlink.com 1.10,2013-02-25 12:31:00,
2013-02-25 06:46:00,60.7,59.0,29.60,South,171,3.0,-999.0,93,-99.99,,,0.00,weatherlink.com 1.10,2013-02-25 12:46:00,
2013-02-25 07:01:00,60.7,59.0,29.61,ESE,121,2.0,-999.0,93,-99.99,,,0.00,weatherlink.com 1.10,2013-02-25 13:01:00,
2013-02-25 07:16:00,60.7,59.0,29.61,ESE,110,3.0,-999.0,94,-99.99,,,0.00,weatherlink.com 1.10,2013-02-25 13:16:00,
2013-02-25 07:31:00,60.9,59.0,29.61,SE,130,3.0,-999.0,94,-99.99,,,0.00,weatherlink.com 1.10,2013-02-25 13:31:00,
2013-02-25 07:46:00,61.0,59.0,29.62,SSE,148,0.0,-999.0,94,-99.99,,,0.00,weatherlink.com 1.10,2013-02-25 13:46:00,
2013-02-25 08:01:00,61.3,60.0,29.63,East,100,2.0,-999.0,94,-99.99,,,0.00,weatherlink.com 1.10,2013-02-25 14:01:00,
2013-02-25 08:16:00,61.5,60.0,29.64,SE,124,2.0,-999.0,95,-99.99,,,0.00,weatherlink.com 1.10,2013-02-25 14:16:00,
2013-02-25 08:31:00,61.8,60.0,29.64,SE,124,1.0,-999.0,95,-99.99,,,0.00,weatherlink.com 1.10,2013-02-25 14:31:00,
2013-02-25 08:46:00,62.0,61.0,29.64,East,96,3.0,-999.0,95,-99.99,,,0.00,weatherlink.com 1.10,2013-02-25 14:46:00,
2013-02-25 09:01:00,62.7,61.0,29.63,SSE,164,5.0,-999.0,95,-99.99,,,0.00,weatherlink.com 1.10,2013-02-25 15:01:00,
2013-02-25 09:16:00,63.1,61.0,29.63,SSE,152,0.0,-999.0,94,-99.99,,,0.00,weatherlink.com 1.10,2013-02-25 15:16:00,
2013-02-25 09:31:00,64.3,62.0,29.62,East,83,1.0,-999.0,93,-99.99,,,0.00,weatherlink.com 1.10,2013-02-25 15:31:00,
2013-02-25 09:46:00,65.0,62.0,29.61,SE,130,0.0,-999.0,91,-99.99,,,0.00,weatherlink.com 1.10,2013-02-25 15:46:00,
2013-02-25 10:01:00,66.1,63.0,29.61,SE,127,1.0,-999.0,90,-99.99,,,0.00,weatherlink.com 1.10,2013-02-25 16:01:00,
2013-02-25 10:16:00,66.8,63.0,29.60,East,80,1.0,-999.0,86,-99.99,,,0.00,weatherlink.com 1.10,2013-02-25 16:16:00,
2013-02-25 10:31:00,66.8,63.0,29.59,SSE,168,1.0,-999.0,86,-99.99,,,0.00,weatherlink.com 1.10,2013-02-25 16:31:00,
2013-02-25 10:46:00,66.8,63.0,29.59,East,92,2.0,-999.0,86,-99.99,,,0.00,weatherlink.com 1.10,2013-02-25 16:46:00,
2013-02-25 11:01:00,68.3,64.0,29.58,SSE,165,6.0,-999.0,85,-99.99,,,0.00,weatherlink.com 1.10,2013-02-25 17:01:00,
2013-02-25 11:31:00,68.9,64.0,29.55,ESE,112,4.0,-999.0,84,-99.99,,,0.00,weatherlink.com 1.10,2013-02-25 17:31:00,
2013-02-25 11:46:00,68.9,64.0,29.54,SSE,154,3.0,-999.0,84,-99.99,,,0.00,weatherlink.com 1.10,2013-02-25 17:46:00,
2013-02-25 12:01:00,68.8,64.0,29.52,ESE,120,3.0,-999.0,84,-99.99,,,0.00,weatherlink.com 1.10,2013-02-25 18:01:00,
2013-02-25 12:16:00,68.1,64.0,29.51,ESE,102,4.0,-999.0,85,-99.99,,,0.00,weatherlink.com 1.10,2013-02-25 18:16:00,
2013-02-25 12:31:00,68.4,64.0,29.50,South,176,1.0,-999.0,87,-99.99,,,0.00,weatherlink.com 1.10,2013-02-25 18:31:00,
2013-02-25 12:46:00,68.6,64.0,29.47,SSE,162,5.0,-999.0,86,-99.99,,,0.00,weatherlink.com 1.10,2013-02-25 18:46:00,
2013-02-25 13:01:00,68.3,64.0,29.45,SE,133,2.0,-999.0,86,-99.99,,,0.00,weatherlink.com 1.10,2013-02-25 19:01:00,
2013-02-25 13:16:00,67.8,64.0,29.44,ESE,106,9.0,-999.0,87,-99.99,,,0.00,weatherlink.com 1.10,2013-02-25 19:16:00,
2013-02-25 13:31:00,67.3,64.0,29.44,South,172,4.0,-999.0,88,-99.99,,,0.00,weatherlink.com 1.10,2013-02-25 19:31:00,
2013-02-25 13:46:00,66.9,64.0,29.41,SSE,164,1.0,-999.0,89,-99.99,,,0.00,weatherlink.com 1.10,2013-02-25 19:46:00,
2013-02-25 14:01:00,66.6,64.0,29.41,ESE,110,1.0,-999.0,90,-99.99,,,0.00,weatherlink.com 1.10,2013-02-25 20:01:00,
2013-02-25 14:16:00,66.3,64.0,29.41,East,93,1.0,-999.0,91,-99.99,,,0.05,weatherlink.com 1.10,2013-02-25 20:16:00,
2013-02-25 14:31:00,65.8,64.0,29.44,SSE,165,6.0,-999.0,92,-99.99,,,0.08,weatherlink.com 1.10,2013-02-25 20:31:00,
2013-02-25 14:46:00,66.0,64.0,29.39,SSE,154,4.0,-999.0,93,-99.99,,,0.10,weatherlink.com 1.10,2013-02-25 20:46:00,
2013-02-25 15:01:00,65.2,63.0,29.38,SSE,154,4.0,-999.0,93,-99.99,,,0.10,weatherlink.com 1.10,2013-02-25 21:01:00,
2013-02-25 15:16:00,64.7,63.0,29.39,South,171,6.0,-999.0,93,-99.99,,,0.12,weatherlink.com 1.10,2013-02-25 21:16:00,
2013-02-25 15:31:00,63.7,62.0,29.39,SE,144,1.0,-999.0,93,-99.99,,,0.13,weatherlink.com 1.10,2013-02-25 21:31:00,
2013-02-25 15:46:00,63.5,62.0,29.39,ESE,112,7.0,-999.0,94,-99.99,,,0.15,weatherlink.com 1.10,2013-02-25 21:46:00,
2013-02-25 16:01:00,63.1,61.0,29.38,SE,143,0.0,-999.0,94,-99.99,,,0.21,weatherlink.com 1.10,2013-02-25 22:01:00,
2013-02-25 16:16:00,63.1,61.0,29.36,SSE,161,0.0,-999.0,94,-99.99,,,0.21,weatherlink.com 1.10,2013-02-25 22:16:00,
2013-02-25 16:31:00,62.9,61.0,29.36,SSE,154,0.0,-999.0,94,-99.99,,,0.21,weatherlink.com 1.10,2013-02-25 22:31:00,
2013-02-25 16:46:00,63.1,61.0,29.39,West,272,4.0,-999.0,94,-99.99,,,0.30,weatherlink.com 1.10,2013-02-25 22:46:00,
2013-02-25 17:01:00,63.2,62.0,29.39,West,271,0.0,-999.0,95,-99.99,,,0.30,weatherlink.com 1.10,2013-02-25 23:01:00,
2013-02-25 17:16:00,64.2,63.0,29.38,West,268,0.0,-999.0,94,-99.99,,,0.30,weatherlink.com 1.10,2013-02-25 23:16:00,
2013-02-25 18:01:00,63.4,61.0,29.39,West,264,0.0,-999.0,92,-99.99,,,0.30,weatherlink.com 1.10,2013-02-26 00:01:00,
2013-02-25 18:16:00,62.6,60.0,29.40,West,264,0.0,-999.0,92,-99.99,,,0.30,weatherlink.com 1.10,2013-02-26 00:16:00,
2013-02-25 18:31:00,61.6,59.0,29.40,West,264,0.0,-999.0,92,-99.99,,,0.30,weatherlink.com 1.10,2013-02-26 00:31:00,
2013-02-25 18:46:00,60.9,59.0,29.40,West,265,0.0,-999.0,92,-99.99,,,0.30,weatherlink.com 1.10,2013-02-26 00:46:00,
2013-02-25 19:01:00,59.9,58.0,29.41,West,264,0.0,-999.0,92,-99.99,,,0.30,weatherlink.com 1.10,2013-02-26 01:01:00,
2013-02-25 19:16:00,59.3,57.0,29.43,West,277,2.0,-999.0,92,-99.99,,,0.30,weatherlink.com 1.10,2013-02-26 01:16:00,
2013-02-25 19:31:00,57.0,53.0,29.44,WNW,282,13.0,-999.0,86,-99.99,,,0.30,weatherlink.com 1.10,2013-02-26 01:31:00,
2013-02-25 19:46:00,56.9,48.0,29.45,West,277,0.0,-999.0,72,-99.99,,,0.30,weatherlink.com 1.10,2013-02-26 01:46:00,
2013-02-25 20:01:00,57.2,43.0,29.46,West,274,8.0,-999.0,60,-99.99,,,0.30,weatherlink.com 1.10,2013-02-26 02:01:00,
2013-02-25 20:16:00,57.2,42.0,29.46,West,278,1.0,-999.0,58,-99.99,,,0.30,weatherlink.com 1.10,2013-02-26 02:16:00,
2013-02-25 20:31:00,56.7,40.0,29.47,WNW,294,8.0,-999.0,53,-99.99,,,0.30,weatherlink.com 1.10,2013-02-26 02:31:00,
2013-02-25 20:46:00,56.9,38.0,29.48,West,281,6.0,-999.0,50,-99.99,,,0.30,weatherlink.com 1.10,2013-02-26 02:46:00,
2013-02-25 21:01:00,56.7,38.0,29.49,West,264,4.0,-999.0,50,-99.99,,,0.30,weatherlink.com 1.10,2013-02-26 03:01:00,
2013-02-25 21:16:00,56.2,38.0,29.50,WNW,296,4.0,-999.0,51,-99.99,,,0.30,weatherlink.com 1.10,2013-02-26 03:16:00,
2013-02-25 21:31:00,55.6,38.0,29.52,WNW,287,7.0,-999.0,51,-99.99,,,0.30,weatherlink.com 1.10,2013-02-26 03:31:00,
2013-02-25 21:45:00,55.0,36.0,29.53,WSW,246,8.0,-999.0,49,-99.99,,,0.30,weatherlink.com 1.10,2013-02-26 03:45:00,
2013-02-25 22:01:00,54.1,34.0,29.54,South,189,3.0,-999.0,47,-99.99,,,0.30,weatherlink.com 1.10,2013-02-26 04:01:00,
2013-02-25 22:16:00,53.3,33.0,29.54,WSW,258,0.0,-999.0,47,-99.99,,,0.30,weatherlink.com 1.10,2013-02-26 04:16:00,
2013-02-25 22:31:00,52.6,33.0,29.55,SW,229,5.0,-999.0,48,-99.99,,,0.30,weatherlink.com 1.10,2013-02-26 04:31:00,
2013-02-25 22:46:00,52.2,33.0,29.55,West,265,0.0,-999.0,49,-99.99,,,0.30,weatherlink.com 1.10,2013-02-26 04:46:00,
2013-02-25 23:00:00,51.6,33.0,29.55,WNW,287,8.0,-999.0,50,-99.99,,,0.00,weatherlink.com 1.10,2013-02-26 05:00:00,
2013-02-25 23:16:00,51.1,33.0,29.56,West,261,6.0,-999.0,51,-99.99,,,0.00,weatherlink.com 1.10,2013-02-26 05:16:00,
2013-02-25 23:31:00,50.7,33.0,29.56,WSW,256,1.0,-999.0,52,-99.99,,,0.00,weatherlink.com 1.10,2013-02-26 05:31:00,
2013-02-25 23:46:00,50.1,33.0,29.57,WSW,248,10.0,-999.0,53,-99.99,,,0.00,weatherlink.com 1.10,2013-02-26 05:46:00,